Time;durP1;ratioP1;P1;durP2;ratioP2;P2;SDS_P1;SDS_P2;PMS_P1;PMS_P2;Temp;Humidity;BMP_temperature;BMP_pressure;BME280_temperature;BME280_humidity;BME280_pressure;Samples;Min_cycle;Max_cycle;Signal;HPM_P1;HPM_P2
2023/10/21 00:01:00;;;;;;;2.78;1.67;;;13.10;99.90;;;;;;5042772;28;20375;-43
2023/10/21 00:03:26;;;;;;;2.17;1.70;;;13.10;99.90;;;;;;5043838;28;20570;-42
2023/10/21 00:05:51;;;;;;;2.45;1.73;;;13.10;99.90;;;;;;5044500;28;20539;-43
2023/10/21 00:08:18;;;;;;;2.03;1.50;;;13.00;99.90;;;;;;5042031;28;20051;-44
2023/10/21 00:10:44;;;;;;;2.30;1.50;;;13.00;99.90;;;;;;5043985;28;20010;-44
2023/10/21 00:13:10;;;;;;;2.55;2.35;;;13.00;99.90;;;;;;5043355;28;20028;-43
2023/10/21 00:15:35;;;;;;;2.00;1.90;;;13.00;99.90;;;;;;5044894;28;20033;-43
2023/10/21 00:18:01;;;;;;;2.20;1.75;;;12.90;99.90;;;;;;5047230;28;20056;-43
2023/10/21 00:20:29;;;;;;;4.40;1.95;;;12.90;99.90;;;;;;5048537;28;20059;-43
2023/10/21 00:22:55;;;;;;;2.78;2.05;;;12.90;99.90;;;;;;5047501;28;20025;-43
2023/10/21 00:25:21;;;;;;;2.20;2.00;;;12.90;99.90;;;;;;5047374;28;20028;-43
2023/10/21 00:27:49;;;;;;;3.22;2.17;;;12.90;99.90;;;;;;5048338;28;20111;-43
2023/10/21 00:30:22;;;;;;;2.95;2.40;;;12.90;99.90;;;;;;5046202;28;20060;-43
2023/10/21 00:32:48;;;;;;;2.72;2.20;;;12.90;99.90;;;;;;5047029;28;20049;-43
2023/10/21 00:35:13;;;;;;;2.55;2.20;;;12.90;99.90;;;;;;5046282;28;20032;-43
2023/10/21 00:37:39;;;;;;;2.40;2.20;;;12.90;99.90;;;;;;5047942;28;20032;-43
2023/10/21 00:40:06;;;;;;;3.17;2.38;;;12.80;99.90;;;;;;5047078;28;20387;-44
2023/10/21 00:42:31;;;;;;;2.70;2.50;;;12.80;99.90;;;;;;5046887;28;20408;-43
2023/10/21 00:44:57;;;;;;;2.40;2.20;;;12.80;99.90;;;;;;5047554;28;20021;-44
2023/10/21 00:47:22;;;;;;;2.60;2.40;;;12.80;99.90;;;;;;5047630;28;20087;-43
2023/10/21 00:49:48;;;;;;;2.42;2.22;;;12.80;99.90;;;;;;5047374;28;20032;-43
2023/10/21 00:52:14;;;;;;;2.63;2.30;;;12.90;99.90;;;;;;5047797;28;20025;-43
2023/10/21 00:54:39;;;;;;;2.10;1.90;;;12.90;99.90;;;;;;5047819;28;20044;-43
2023/10/21 00:57:05;;;;;;;2.05;1.90;;;12.90;99.90;;;;;;5046157;28;20211;-43
2023/10/21 00:59:30;;;;;;;1.80;1.70;;;13.00;99.90;;;;;;5047113;28;20071;-43
2023/10/21 01:01:56;;;;;;;2.22;1.65;;;13.00;99.90;;;;;;5046980;28;20558;-42
2023/10/21 01:04:22;;;;;;;2.33;2.10;;;13.00;99.90;;;;;;5045745;28;20049;-44
2023/10/21 01:06:48;;;;;;;2.33;1.88;;;13.00;99.90;;;;;;5047213;28;20025;-43
2023/10/21 01:09:17;;;;;;;2.17;1.60;;;13.00;99.90;;;;;;5045678;28;20028;-43
2023/10/21 01:11:42;;;;;;;2.05;1.60;;;13.00;99.90;;;;;;5046418;28;20555;-43
2023/10/21 01:14:09;;;;;;;2.22;1.58;;;13.00;99.90;;;;;;5046071;28;20013;-43
2023/10/21 01:16:35;;;;;;;2.38;1.80;;;12.90;99.90;;;;;;5046504;28;20557;-43
2023/10/21 01:19:00;;;;;;;2.13;1.80;;;13.00;99.90;;;;;;5045463;28;20483;-43
2023/10/21 01:21:29;;;;;;;2.13;1.92;;;13.10;99.90;;;;;;5046565;28;20031;-43
2023/10/21 01:23:54;;;;;;;2.72;1.63;;;13.10;99.90;;;;;;5046100;28;20788;-43
2023/10/21 01:26:20;;;;;;;2.22;1.80;;;13.10;99.90;;;;;;5045076;28;20036;-43
2023/10/21 01:28:45;;;;;;;2.75;1.50;;;13.20;99.90;;;;;;5046437;28;20020;-43
2023/10/21 01:31:11;;;;;;;1.45;1.35;;;13.20;99.90;;;;;;5045963;28;20360;-43
2023/10/21 01:33:36;;;;;;;1.92;1.70;;;13.20;99.90;;;;;;5045371;28;20147;-43
2023/10/21 01:36:02;;;;;;;2.03;1.50;;;13.20;99.90;;;;;;5045260;28;20487;-42
2023/10/21 01:38:30;;;;;;;1.63;1.48;;;13.30;99.90;;;;;;5045916;28;20033;-43
2023/10/21 01:40:56;;;;;;;1.63;1.38;;;13.30;99.90;;;;;;5046382;28;20086;-43
2023/10/21 01:43:21;;;;;;;2.47;1.60;;;13.30;99.90;;;;;;5046009;28;20037;-43
2023/10/21 01:45:47;;;;;;;1.60;1.50;;;13.30;99.90;;;;;;5045345;28;20027;-43
2023/10/21 01:48:13;;;;;;;3.17;1.55;;;13.40;99.90;;;;;;5045820;28;20446;-43
2023/10/21 01:50:41;;;;;;;1.83;1.60;;;13.40;99.90;;;;;;5046099;28;20031;-44
2023/10/21 01:53:07;;;;;;;2.55;1.80;;;13.40;99.90;;;;;;5044771;28;20035;-44
2023/10/21 01:55:33;;;;;;;1.77;1.63;;;13.40;99.90;;;;;;5046097;28;20029;-42
2023/10/21 01:57:59;;;;;;;2.88;1.90;;;13.40;99.90;;;;;;5046000;28;20178;-43
2023/10/21 02:00:24;;;;;;;2.60;1.70;;;13.40;99.90;;;;;;5044937;28;20104;-43
2023/10/21 02:02:54;;;;;;;3.08;1.80;;;13.40;99.90;;;;;;5045816;28;20018;-43
2023/10/21 02:05:20;;;;;;;3.15;1.85;;;13.40;99.90;;;;;;5045486;28;20025;-43
2023/10/21 02:07:47;;;;;;;2.55;1.88;;;13.40;99.90;;;;;;5044964;28;20547;-43
2023/10/21 02:10:12;;;;;;;2.05;1.50;;;13.30;99.90;;;;;;5044735;28;20117;-43
2023/10/21 02:12:38;;;;;;;3.15;1.95;;;13.30;99.90;;;;;;5045718;28;20550;-43
2023/10/21 02:15:06;;;;;;;2.25;1.63;;;13.20;99.90;;;;;;5044638;28;20115;-43
2023/10/21 02:17:34;;;;;;;1.60;1.50;;;13.20;99.90;;;;;;5045147;28;20417;-44
2023/10/21 02:20:00;;;;;;;2.75;1.73;;;13.20;99.90;;;;;;5045381;28;20101;-43
2023/10/21 02:22:26;;;;;;;2.65;1.60;;;13.10;99.90;;;;;;5044202;28;20812;-43
2023/10/21 02:24:53;;;;;;;1.92;1.70;;;13.10;99.90;;;;;;5045843;28;20040;-44
2023/10/21 02:27:19;;;;;;;1.73;1.63;;;13.00;99.90;;;;;;5044499;28;20032;-44
2023/10/21 02:29:51;;;;;;;2.38;1.70;;;13.00;99.90;;;;;;5045536;28;20380;-43
2023/10/21 02:32:17;;;;;;;2.35;1.85;;;13.00;99.90;;;;;;5044904;28;20052;-43
2023/10/21 02:34:42;;;;;;;1.70;1.60;;;13.00;99.90;;;;;;5044646;28;20514;-43
2023/10/21 02:37:11;;;;;;;1.83;1.42;;;12.90;99.90;;;;;;5044424;28;20033;-43
2023/10/21 02:39:43;;;;;;;3.20;1.80;;;12.90;99.90;;;;;;5044961;28;20094;-44
2023/10/21 02:42:08;;;;;;;1.73;1.63;;;12.90;99.90;;;;;;5044217;28;20475;-43
2023/10/21 02:44:43;;;;;;;4.07;1.73;;;12.90;99.90;;;;;;5045275;28;20086;-43
2023/10/21 02:47:16;;;;;;;1.98;1.80;;;12.90;99.90;;;;;;5044988;28;20021;-43
2023/10/21 02:49:42;;;;;;;1.95;1.80;;;12.90;99.90;;;;;;5045233;28;20017;-42
2023/10/21 02:52:10;;;;;;;2.03;1.70;;;12.90;99.90;;;;;;5044513;28;20529;-43
2023/10/21 02:54:36;;;;;;;1.80;1.70;;;12.90;99.90;;;;;;5046114;28;20029;-43
2023/10/21 02:57:02;;;;;;;3.17;2.00;;;13.00;99.90;;;;;;5043608;28;20033;-44
2023/10/21 02:59:27;;;;;;;1.85;1.67;;;13.00;99.90;;;;;;5044718;28;20461;-44
2023/10/21 03:01:53;;;;;;;3.00;2.00;;;13.00;99.90;;;;;;5045357;28;20033;-43
2023/10/21 03:04:18;;;;;;;2.78;2.00;;;13.00;99.90;;;;;;5043305;28;20155;-43
2023/10/21 03:06:44;;;;;;;2.80;2.13;;;13.00;99.90;;;;;;5044859;28;20086;-43
2023/10/21 03:09:09;;;;;;;2.67;2.47;;;13.00;99.90;;;;;;5044426;28;20107;-43
2023/10/21 03:11:35;;;;;;;2.75;1.83;;;13.00;99.90;;;;;;5044115;28;20102;-44
2023/10/21 03:14:00;;;;;;;1.77;1.63;;;13.10;99.90;;;;;;5044114;28;20490;-43
2023/10/21 03:16:26;;;;;;;1.95;1.75;;;13.10;99.90;;;;;;5044413;28;20032;-44
2023/10/21 03:18:54;;;;;;;4.13;1.92;;;13.10;99.90;;;;;;5044362;28;20040;-43
2023/10/21 03:21:20;;;;;;;2.22;2.03;;;13.10;99.90;;;;;;5044339;28;20037;-43
2023/10/21 03:23:45;;;;;;;1.88;1.77;;;13.10;99.90;;;;;;5044138;28;20503;-43
2023/10/21 03:26:11;;;;;;;2.40;2.20;;;13.10;99.90;;;;;;5043385;28;20035;-43
2023/10/21 03:28:38;;;;;;;2.63;2.42;;;13.10;99.90;;;;;;5044581;28;20025;-43
2023/10/21 03:31:04;;;;;;;3.00;2.30;;;13.10;99.90;;;;;;5043406;28;20380;-43
2023/10/21 03:33:31;;;;;;;2.63;1.80;;;13.10;99.90;;;;;;5044765;28;20052;-42
2023/10/21 03:35:58;;;;;;;3.47;1.98;;;13.10;99.90;;;;;;5044211;28;20037;-42
2023/10/21 03:38:24;;;;;;;2.92;2.00;;;13.10;99.90;;;;;;5043436;28;20360;-43
2023/10/21 03:41:07;;;;;;;2.13;1.92;;;13.10;99.90;;;;;;5044660;28;20081;-43
2023/10/21 03:43:34;;;;;;;2.40;1.98;;;13.10;99.90;;;;;;5044466;28;20027;-42
2023/10/21 03:46:05;;;;;;;2.15;2.00;;;13.10;99.90;;;;;;5043653;28;20086;-43
2023/10/21 03:48:32;;;;;;;2.53;2.33;;;13.10;99.90;;;;;;5044279;28;20025;-43
2023/10/21 03:51:11;;;;;;;2.45;1.88;;;13.10;99.90;;;;;;5043707;28;20617;-43
2023/10/21 03:53:41;;;;;;;2.45;2.20;;;13.10;99.90;;;;;;5044476;28;20128;-43
2023/10/21 03:56:08;;;;;;;3.55;2.00;;;13.10;99.90;;;;;;5040881;28;20028;-43
2023/10/21 03:58:37;;;;;;;1.95;1.75;;;13.10;99.90;;;;;;5044537;28;20029;-43
2023/10/21 04:01:03;;;;;;;1.95;1.70;;;13.10;99.90;;;;;;5043724;28;20064;-43
2023/10/21 04:03:28;;;;;;;2.53;1.63;;;13.10;99.90;;;;;;5044466;28;20445;-43
2023/10/21 04:05:55;;;;;;;2.78;1.75;;;13.10;99.90;;;;;;5044521;28;20415;-44
2023/10/21 04:08:24;;;;;;;2.58;1.70;;;13.10;99.90;;;;;;5042906;28;20029;-43
2023/10/21 04:10:52;;;;;;;2.65;1.90;;;13.10;99.90;;;;;;5043563;28;20021;-44
2023/10/21 04:13:18;;;;;;;2.28;1.60;;;13.10;99.90;;;;;;5043030;28;20115;-42
2023/10/21 04:15:44;;;;;;;2.00;1.75;;;13.10;99.90;;;;;;5043332;28;20029;-42
2023/10/21 04:18:13;;;;;;;2.42;1.70;;;13.10;99.90;;;;;;5042966;28;20499;-42
2023/10/21 04:20:39;;;;;;;2.00;1.80;;;13.20;99.90;;;;;;5043011;28;20666;-43
2023/10/21 04:23:04;;;;;;;2.17;1.98;;;13.20;99.90;;;;;;5042657;28;20620;-43
2023/10/21 04:25:30;;;;;;;3.72;1.90;;;13.20;99.90;;;;;;5043492;28;20021;-43
2023/10/21 04:27:56;;;;;;;2.25;1.70;;;13.20;99.90;;;;;;5042956;28;20021;-43
2023/10/21 04:30:23;;;;;;;1.80;1.70;;;13.20;99.90;;;;;;5042873;28;20013;-43
2023/10/21 04:32:48;;;;;;;1.65;1.52;;;13.20;99.90;;;;;;5043542;28;20072;-43
2023/10/21 04:35:14;;;;;;;1.92;1.83;;;13.10;99.90;;;;;;5042283;28;20033;-43
2023/10/21 04:37:43;;;;;;;2.03;1.83;;;13.20;99.90;;;;;;5043788;28;20398;-44
2023/10/21 04:40:15;;;;;;;2.15;1.63;;;13.20;99.90;;;;;;5043343;28;20091;-43
2023/10/21 04:42:41;;;;;;;3.50;1.52;;;13.20;99.90;;;;;;5039658;28;20715;-44
2023/10/21 04:45:08;;;;;;;1.95;1.85;;;13.20;99.90;;;;;;5043379;28;20029;-43
2023/10/21 04:47:37;;;;;;;2.03;1.83;;;13.20;99.90;;;;;;5042747;28;20083;-45
2023/10/21 04:50:04;;;;;;;2.00;1.80;;;13.20;99.90;;;;;;5042767;28;20025;-44
2023/10/21 04:52:29;;;;;;;1.92;1.70;;;13.20;99.90;;;;;;5043771;28;20037;-44
2023/10/21 04:54:55;;;;;;;1.80;1.70;;;13.20;99.90;;;;;;5043574;28;20047;-44
2023/10/21 04:57:20;;;;;;;2.33;1.77;;;13.10;99.90;;;;;;5042159;28;20041;-44
2023/10/21 04:59:46;;;;;;;1.88;1.70;;;13.10;99.90;;;;;;5043106;28;20029;-44
2023/10/21 05:02:11;;;;;;;2.75;1.60;;;13.10;99.90;;;;;;5045416;28;20080;-44
2023/10/21 05:04:38;;;;;;;1.92;1.75;;;13.10;99.90;;;;;;5046190;28;20851;-44
2023/10/21 05:07:04;;;;;;;2.38;1.92;;;13.10;99.90;;;;;;5046680;28;20028;-44
2023/10/21 05:09:30;;;;;;;2.25;2.05;;;13.00;99.90;;;;;;5046267;28;20033;-43
2023/10/21 05:11:56;;;;;;;2.08;1.90;;;13.00;99.90;;;;;;5046400;28;20025;-42
2023/10/21 05:14:21;;;;;;;1.83;1.70;;;13.00;99.90;;;;;;5046432;28;20095;-42
2023/10/21 05:16:48;;;;;;;2.10;1.90;;;13.00;99.90;;;;;;5046109;28;20060;-42
2023/10/21 05:19:23;;;;;;;2.33;1.75;;;13.00;99.90;;;;;;5046240;28;20025;-43
2023/10/21 05:21:48;;;;;;;2.00;1.90;;;13.00;99.90;;;;;;5047172;28;20753;-44
2023/10/21 05:24:14;;;;;;;3.67;2.30;;;13.00;99.90;;;;;;5045549;28;20570;-43
2023/10/21 05:26:40;;;;;;;2.83;1.98;;;13.00;99.90;;;;;;5046145;28;20392;-43
2023/10/21 05:29:06;;;;;;;2.10;1.90;;;13.00;99.90;;;;;;5045794;28;20025;-43
2023/10/21 05:31:31;;;;;;;2.20;2.00;;;13.00;99.90;;;;;;5045964;28;20052;-43
2023/10/21 05:33:59;;;;;;;2.30;1.80;;;13.00;99.90;;;;;;5046056;28;20095;-43
2023/10/21 05:36:25;;;;;;;2.22;1.85;;;13.00;99.90;;;;;;5045927;28;20442;-43
2023/10/21 05:38:50;;;;;;;3.95;1.85;;;12.90;99.90;;;;;;5046062;28;20017;-43
2023/10/21 05:41:16;;;;;;;1.70;1.60;;;12.90;99.90;;;;;;5045866;28;20048;-43
2023/10/21 05:43:41;;;;;;;2.70;2.03;;;12.90;99.90;;;;;;5045803;28;20115;-44
2023/10/21 05:46:07;;;;;;;2.28;1.73;;;12.90;99.90;;;;;;5045025;28;20029;-44
2023/10/21 05:48:33;;;;;;;4.45;1.95;;;12.90;99.90;;;;;;5045538;28;20036;-43
2023/10/21 05:51:02;;;;;;;2.42;2.10;;;12.90;99.90;;;;;;5046427;28;20408;-43
2023/10/21 05:53:28;;;;;;;2.63;2.20;;;12.90;99.90;;;;;;5045290;28;20119;-43
2023/10/21 05:55:56;;;;;;;2.22;1.90;;;13.00;99.90;;;;;;5046233;28;20115;-43
2023/10/21 05:58:23;;;;;;;3.20;1.90;;;12.90;99.90;;;;;;5045731;28;20064;-44
2023/10/21 06:00:52;;;;;;;2.45;1.95;;;13.00;99.90;;;;;;5045804;28;20025;-43
2023/10/21 06:03:17;;;;;;;2.40;1.80;;;13.00;99.90;;;;;;5046005;28;20111;-43
2023/10/21 06:05:46;;;;;;;2.17;1.77;;;13.00;99.90;;;;;;5045115;28;20131;-44
2023/10/21 06:08:12;;;;;;;3.88;1.90;;;13.00;99.90;;;;;;5045245;28;20041;-44
2023/10/21 06:10:39;;;;;;;2.50;1.75;;;13.00;99.90;;;;;;5045981;28;20028;-43
2023/10/21 06:13:05;;;;;;;1.75;1.63;;;13.10;99.90;;;;;;5043773;28;20694;-43
2023/10/21 06:15:32;;;;;;;1.90;1.60;;;13.00;99.90;;;;;;5045403;28;20023;-44
2023/10/21 06:17:57;;;;;;;1.63;1.50;;;13.10;99.90;;;;;;5046127;28;20044;-44
2023/10/21 06:20:24;;;;;;;2.75;1.50;;;13.10;99.90;;;;;;5044658;28;20483;-44
2023/10/21 06:22:49;;;;;;;2.95;1.77;;;13.20;99.90;;;;;;5046044;28;20052;-43
2023/10/21 06:25:16;;;;;;;2.15;1.60;;;13.20;99.90;;;;;;5044930;28;20082;-44
2023/10/21 06:27:41;;;;;;;2.35;2.00;;;13.30;99.90;;;;;;5044540;28;20128;-44
2023/10/21 06:30:10;;;;;;;4.25;1.65;;;13.40;99.90;;;;;;5044594;28;20135;-44
2023/10/21 06:32:36;;;;;;;1.80;1.70;;;13.40;99.90;;;;;;5045226;28;20515;-43
2023/10/21 06:35:02;;;;;;;2.40;1.50;;;13.40;99.90;;;;;;5044561;28;20107;-44
2023/10/21 06:37:30;;;;;;;2.15;1.75;;;13.50;99.90;;;;;;5045048;28;20040;-43
2023/10/21 06:39:56;;;;;;;2.17;1.73;;;13.50;99.90;;;;;;5045430;28;20142;-43
2023/10/21 06:42:22;;;;;;;2.20;1.58;;;13.40;99.90;;;;;;5044844;28;20502;-43
2023/10/21 06:44:48;;;;;;;2.00;1.80;;;13.40;99.90;;;;;;5045698;28;20580;-43
2023/10/21 06:47:13;;;;;;;2.22;1.90;;;13.40;99.90;;;;;;5045426;28;20037;-42
2023/10/21 06:49:39;;;;;;;1.60;1.50;;;13.40;99.90;;;;;;5044351;28;20021;-43
2023/10/21 06:52:05;;;;;;;1.65;1.55;;;13.40;99.90;;;;;;5044584;28;20468;-42
2023/10/21 06:54:30;;;;;;;2.78;1.75;;;13.30;99.90;;;;;;5045143;28;20036;-43
2023/10/21 06:57:02;;;;;;;4.20;1.92;;;13.40;99.90;;;;;;5044956;28;20037;-43
2023/10/21 06:59:27;;;;;;;1.70;1.60;;;13.30;99.90;;;;;;5045363;28;20083;-43
2023/10/21 07:01:54;;;;;;;3.00;1.70;;;13.30;99.90;;;;;;5044620;28;20071;-44
2023/10/21 07:04:20;;;;;;;3.80;1.60;;;13.30;99.90;;;;;;5044775;28;20071;-43
2023/10/21 07:06:54;;;;;;;3.00;2.30;;;13.40;99.90;;;;;;5044941;28;20071;-43
2023/10/21 07:09:30;;;;;;;1.95;1.75;;;13.40;99.90;;;;;;5024286;28;20037;-43
2023/10/21 07:11:55;;;;;;;2.08;1.70;;;13.50;99.90;;;;;;5040184;28;20033;-44
2023/10/21 07:14:21;;;;;;;2.90;1.88;;;13.50;99.90;;;;;;5043761;28;20033;-44
2023/10/21 07:16:47;;;;;;;2.22;2.03;;;13.60;99.90;;;;;;5043537;28;20032;-44
2023/10/21 07:19:12;;;;;;;3.20;2.15;;;13.70;99.90;;;;;;5044396;28;20589;-44
2023/10/21 07:21:38;;;;;;;2.25;2.03;;;13.70;99.90;;;;;;5043868;28;20057;-43
2023/10/21 07:24:04;;;;;;;4.20;2.00;;;13.80;99.90;;;;;;5043142;28;20452;-43
2023/10/21 07:26:29;;;;;;;2.50;1.90;;;13.80;99.90;;;;;;5043805;28;20025;-43
2023/10/21 07:28:55;;;;;;;2.20;1.90;;;13.80;99.90;;;;;;5044487;28;20032;-43
2023/10/21 07:31:23;;;;;;;2.38;1.70;;;13.90;99.90;;;;;;5043574;28;20028;-43
2023/10/21 07:33:52;;;;;;;2.50;2.00;;;13.90;99.90;;;;;;5033644;28;20484;-43
2023/10/21 07:36:17;;;;;;;3.55;2.33;;;13.90;99.90;;;;;;5043480;28;20036;-42
2023/10/21 07:38:43;;;;;;;3.15;2.50;;;14.00;99.90;;;;;;5043204;28;20509;-42
2023/10/21 07:41:13;;;;;;;2.55;2.20;;;14.00;99.90;;;;;;5044030;28;20037;-43
2023/10/21 07:43:38;;;;;;;2.53;1.77;;;14.00;99.90;;;;;;5044303;28;20107;-44
2023/10/21 07:46:04;;;;;;;4.93;2.58;;;14.00;99.90;;;;;;5043464;28;20210;-43
2023/10/21 07:48:31;;;;;;;3.03;2.13;;;14.00;99.90;;;;;;5044254;28;20025;-43
2023/10/21 07:50:57;;;;;;;4.93;2.22;;;14.00;99.90;;;;;;5044282;28;20464;-43
2023/10/21 07:53:22;;;;;;;2.53;2.20;;;14.00;99.90;;;;;;5043534;28;20027;-44
2023/10/21 07:55:49;;;;;;;2.88;2.13;;;14.10;99.90;;;;;;5044793;28;20384;-44
2023/10/21 07:58:15;;;;;;;2.92;2.00;;;14.10;99.90;;;;;;5043141;28;20044;-43
2023/10/21 08:00:41;;;;;;;2.63;1.80;;;14.20;99.90;;;;;;5044416;28;20024;-44
2023/10/21 08:03:07;;;;;;;1.58;1.48;;;14.20;99.90;;;;;;5043905;28;20021;-43
2023/10/21 08:05:33;;;;;;;1.85;1.42;;;14.30;99.90;;;;;;5043550;28;20029;-43
2023/10/21 08:07:58;;;;;;;3.13;1.70;;;14.30;99.90;;;;;;5043755;28;20075;-44
2023/10/21 08:10:24;;;;;;;4.18;1.90;;;14.40;99.90;;;;;;5044119;28;20021;-43
2023/10/21 08:12:49;;;;;;;2.70;1.50;;;14.40;99.90;;;;;;5043186;28;20032;-44
2023/10/21 08:15:15;;;;;;;2.53;1.75;;;14.40;99.90;;;;;;5043638;28;20013;-43
2023/10/21 08:17:41;;;;;;;2.45;1.70;;;14.40;99.90;;;;;;5044172;28;20476;-42
2023/10/21 08:20:07;;;;;;;3.13;1.88;;;14.40;99.90;;;;;;5042495;28;20510;-43
2023/10/21 08:22:40;;;;;;;2.63;1.38;;;14.40;99.90;;;;;;5043495;28;20893;-43
2023/10/21 08:25:07;;;;;;;1.70;1.50;;;14.30;99.90;;;;;;5040541;28;20021;-43
2023/10/21 08:27:33;;;;;;;1.58;1.38;;;14.30;99.90;;;;;;5043124;28;20037;-43
2023/10/21 08:29:59;;;;;;;1.17;1.00;;;14.30;99.90;;;;;;5043730;28;20021;-43
2023/10/21 08:32:24;;;;;;;1.85;0.98;;;14.20;99.90;;;;;;5043320;28;20167;-42
2023/10/21 08:34:50;;;;;;;1.23;0.80;;;14.20;99.90;;;;;;5042799;28;20025;-43
2023/10/21 08:37:37;;;;;;;0.93;0.80;;;14.10;99.90;;;;;;5046251;28;20105;-43
2023/10/21 08:40:10;;;;;;;2.30;0.85;;;14.10;99.90;;;;;;5046536;28;20025;-44
2023/10/21 08:42:38;;;;;;;;;;;14.10;99.90;;;;;;5047811;28;20031;-44
2023/10/21 08:45:06;;;;;;;1.38;0.80;;;14.10;99.90;;;;;;5046801;28;19905;-44
2023/10/21 08:47:35;;;;;;;1.42;1.10;;;14.20;99.90;;;;;;5046731;28;20777;-45
2023/10/21 08:50:01;;;;;;;1.13;1.00;;;14.20;99.90;;;;;;5047158;28;20033;-44
2023/10/21 08:52:28;;;;;;;2.08;1.15;;;14.30;99.90;;;;;;5047170;28;20036;-42
2023/10/21 08:54:57;;;;;;;0.60;0.60;;;14.40;99.90;;;;;;5046720;28;20480;-42
2023/10/21 08:57:23;;;;;;;0.68;0.68;;;14.40;99.90;;;;;;5046969;28;20380;-43
2023/10/21 08:59:49;;;;;;;0.60;0.60;;;14.40;99.90;;;;;;5047030;28;20404;-43
2023/10/21 09:02:17;;;;;;;0.85;0.70;;;14.40;99.90;;;;;;5046498;28;20116;-43
2023/10/21 09:04:43;;;;;;;0.77;0.60;;;14.40;99.90;;;;;;5046824;28;20033;-43
2023/10/21 09:07:08;;;;;;;1.23;0.70;;;14.40;99.90;;;;;;5046713;28;20029;-43
2023/10/21 09:09:35;;;;;;;0.80;0.60;;;14.40;99.90;;;;;;5046220;28;20017;-43
2023/10/21 09:12:10;;;;;;;0.73;0.50;;;14.50;99.90;;;;;;5046329;28;20968;-44
2023/10/21 09:15:03;;;;;;;1.27;0.63;;;14.50;99.90;;;;;;5046775;28;20033;-44
2023/10/21 09:17:38;;;;;;;1.52;0.80;;;14.50;99.90;;;;;;5035165;28;20085;-43
2023/10/21 09:20:11;;;;;;;1.33;0.90;;;14.50;99.90;;;;;;5046255;28;20024;-43
2023/10/21 09:22:37;;;;;;;1.85;0.65;;;14.60;99.90;;;;;;5046209;28;20029;-43
2023/10/21 09:25:14;;;;;;;1.10;0.60;;;14.60;99.90;;;;;;5046552;28;20045;-43
2023/10/21 09:27:44;;;;;;;0.65;0.50;;;14.70;99.90;;;;;;5035682;28;20064;-44
2023/10/21 09:30:17;;;;;;;0.70;0.70;;;14.80;99.90;;;;;;5045228;28;20577;-43
2023/10/21 09:32:44;;;;;;;0.68;0.40;;;14.80;99.90;;;;;;5045389;28;20053;-43
2023/10/21 09:35:13;;;;;;;0.77;0.50;;;14.90;99.90;;;;;;5046329;28;20100;-43
2023/10/21 09:37:42;;;;;;;1.45;0.43;;;14.90;99.90;;;;;;5045495;28;20044;-43
2023/10/21 09:40:09;;;;;;;1.75;0.63;;;14.90;99.90;;;;;;5045576;28;20025;-43
2023/10/21 09:42:42;;;;;;;1.55;0.57;;;14.90;99.90;;;;;;5046567;28;20060;-44
2023/10/21 09:45:11;;;;;;;1.27;0.50;;;14.90;99.90;;;;;;5045575;28;20061;-43
2023/10/21 09:47:41;;;;;;;1.65;0.65;;;14.90;99.90;;;;;;5044762;28;20044;-43
2023/10/21 09:50:11;;;;;;;0.55;0.55;;;15.00;99.90;;;;;;5046170;28;20063;-42
2023/10/21 09:52:56;;;;;;;1.90;0.60;;;15.00;99.90;;;;;;5045360;28;20025;-43
2023/10/21 09:55:25;;;;;;;1.02;0.50;;;15.00;99.90;;;;;;5045768;28;20029;-43
2023/10/21 09:57:53;;;;;;;0.73;0.50;;;15.00;99.90;;;;;;5045308;28;20048;-43
2023/10/21 10:00:20;;;;;;;0.70;0.60;;;15.00;99.90;;;;;;5045458;28;20048;-43
2023/10/21 10:02:48;;;;;;;1.58;0.60;;;15.00;99.90;;;;;;5045516;28;20036;-43
2023/10/21 10:05:17;;;;;;;2.33;0.60;;;15.10;99.90;;;;;;5045280;28;20025;-43
2023/10/21 10:07:47;;;;;;;1.45;0.57;;;15.10;99.90;;;;;;5045698;28;20021;-44
2023/10/21 10:10:15;;;;;;;1.23;0.45;;;15.10;99.90;;;;;;5045592;28;20024;-42
2023/10/21 10:12:49;;;;;;;1.42;0.55;;;15.10;99.90;;;;;;5045306;28;20025;-43
2023/10/21 10:15:37;;;;;;;2.33;0.68;;;15.20;99.90;;;;;;5045473;28;20136;-43
2023/10/21 10:18:04;;;;;;;1.33;0.55;;;15.30;99.90;;;;;;5045230;28;20048;-44
2023/10/21 10:20:30;;;;;;;1.38;0.50;;;15.40;99.90;;;;;;5044959;28;20107;-43
2023/10/21 10:23:09;;;;;;;1.65;0.63;;;15.40;99.90;;;;;;5045254;28;20021;-44
2023/10/21 10:25:46;;;;;;;1.27;0.50;;;15.50;99.90;;;;;;5045544;28;20056;-44
2023/10/21 10:28:16;;;;;;;2.03;0.50;;;15.50;99.90;;;;;;5044361;28;20060;-44
2023/10/21 10:30:44;;;;;;;1.77;0.52;;;15.50;99.90;;;;;;5044939;28;20139;-45
2023/10/21 10:33:15;;;;;;;1.33;0.70;;;15.60;99.90;;;;;;5043634;28;20888;-43
2023/10/21 10:35:46;;;;;;;2.85;0.70;;;15.60;99.90;;;;;;5045770;28;20039;-43
2023/10/21 10:38:26;;;;;;;1.58;1.00;;;15.70;99.90;;;;;;5044605;28;20032;-43
2023/10/21 10:40:59;;;;;;;1.98;0.70;;;15.80;99.90;;;;;;5044484;28;20025;-42
2023/10/21 10:43:26;;;;;;;2.20;1.40;;;15.80;99.90;;;;;;5044273;28;20021;-43
2023/10/21 10:45:51;;;;;;;1.17;0.70;;;15.90;99.90;;;;;;5044771;28;20379;-43
2023/10/21 10:48:17;;;;;;;1.15;0.45;;;16.00;99.90;;;;;;5043771;28;20035;-43
2023/10/21 10:50:43;;;;;;;1.67;0.60;;;16.00;99.90;;;;;;5045072;28;20033;-43
2023/10/21 10:53:22;;;;;;;1.17;0.40;;;16.10;99.90;;;;;;5044299;28;20021;-43
2023/10/21 10:55:54;;;;;;;1.70;0.60;;;16.20;99.90;;;;;;5044264;28;20021;-44
2023/10/21 10:58:30;;;;;;;1.17;0.60;;;16.20;99.90;;;;;;5044174;28;20021;-44
2023/10/21 11:00:56;;;;;;;1.90;0.73;;;16.20;99.90;;;;;;5045551;28;20033;-43
2023/10/21 11:03:31;;;;;;;1.08;0.45;;;16.20;99.90;;;;;;5044278;28;20017;-43
2023/10/21 11:05:58;;;;;;;3.42;1.80;;;16.20;99.90;;;;;;5038539;28;20032;-44
2023/10/21 11:08:27;;;;;;;1.48;0.70;;;16.30;99.90;;;;;;5044483;28;20028;-43
2023/10/21 11:11:03;;;;;;;2.97;0.68;;;16.40;99.90;;;;;;5044760;28;20471;-43
2023/10/21 11:13:29;;;;;;;1.85;0.60;;;16.40;99.90;;;;;;5045077;28;20081;-44
2023/10/21 11:15:55;;;;;;;2.95;0.80;;;16.40;99.90;;;;;;5044438;28;20029;-43
2023/10/21 11:18:21;;;;;;;3.22;1.10;;;16.40;99.90;;;;;;5043783;28;20120;-43
2023/10/21 11:20:48;;;;;;;2.47;0.77;;;16.40;99.90;;;;;;5044482;28;20020;-44
2023/10/21 11:23:18;;;;;;;3.20;0.80;;;16.40;99.90;;;;;;5043569;28;20033;-44
2023/10/21 11:25:49;;;;;;;2.53;0.60;;;16.50;99.90;;;;;;5044182;28;20135;-44
2023/10/21 11:28:16;;;;;;;2.13;0.60;;;16.40;99.90;;;;;;5043673;28;20021;-43
2023/10/21 11:30:44;;;;;;;2.42;0.65;;;16.40;99.90;;;;;;5043131;28;20441;-43
2023/10/21 11:33:10;;;;;;;1.40;0.50;;;16.30;99.90;;;;;;5043667;28;20052;-43
2023/10/21 11:35:40;;;;;;;1.75;0.80;;;16.30;99.90;;;;;;5044676;28;20631;-44
2023/10/21 11:38:06;;;;;;;3.00;0.90;;;16.40;99.90;;;;;;5043047;28;20476;-43
2023/10/21 11:40:34;;;;;;;4.07;1.00;;;16.50;99.90;;;;;;5043513;28;20041;-45
2023/10/21 11:43:01;;;;;;;2.35;0.75;;;16.60;99.90;;;;;;5043326;28;20025;-44
2023/10/21 11:45:30;;;;;;;1.45;0.70;;;16.70;99.90;;;;;;5043849;28;20059;-44
2023/10/21 11:47:57;;;;;;;2.83;0.70;;;16.80;99.90;;;;;;5044248;28;20043;-44
2023/10/21 11:50:24;;;;;;;3.05;0.68;;;16.90;99.90;;;;;;5042864;28;20028;-44
2023/10/21 11:52:51;;;;;;;1.63;0.60;;;16.90;99.90;;;;;;5044357;28;20386;-44
2023/10/21 11:55:38;;;;;;;2.15;0.70;;;16.90;99.90;;;;;;5043510;28;20148;-43
2023/10/21 12:19:51;;;;;;;3.22;1.23;;;16.80;99.90;;;;;;5043198;28;20025;-44
2023/10/21 12:22:52;;;;;;;1.95;1.00;;;16.90;99.90;;;;;;5043480;28;20036;-44
2023/10/21 12:25:41;;;;;;;2.00;0.70;;;16.90;99.90;;;;;;5023650;28;20034;-44
2023/10/21 12:38:41;;;;;;;2.38;0.73;;;16.70;99.90;;;;;;5043355;28;20091;-43
2023/10/21 12:41:15;;;;;;;3.85;1.20;;;16.80;99.90;;;;;;5042365;28;20486;-44
2023/10/21 12:43:45;;;;;;;2.72;1.05;;;16.90;99.90;;;;;;5043335;28;20039;-43
2023/10/21 12:46:22;;;;;;;2.30;0.88;;;16.90;99.90;;;;;;5043720;28;20036;-44
2023/10/21 12:48:52;;;;;;;2.42;0.70;;;17.00;99.90;;;;;;5042583;28;20021;-44
2023/10/21 12:51:29;;;;;;;2.88;0.85;;;17.10;99.90;;;;;;5043349;28;20495;-44
2023/10/21 12:53:57;;;;;;;2.00;0.73;;;17.10;99.90;;;;;;5041925;28;20508;-45
2023/10/21 12:56:22;;;;;;;2.28;0.73;;;17.10;99.90;;;;;;5043221;28;20037;-44
2023/10/21 12:58:48;;;;;;;2.13;0.70;;;17.10;99.90;;;;;;5043289;28;20105;-44
2023/10/21 13:01:18;;;;;;;4.18;1.50;;;17.00;99.90;;;;;;5042617;28;20029;-44
2023/10/21 13:03:44;;;;;;;3.40;1.13;;;17.00;99.90;;;;;;5043404;28;20105;-43
2023/10/21 13:06:10;;;;;;;4.38;1.10;;;16.90;99.90;;;;;;5042798;28;20108;-44
2023/10/21 13:08:39;;;;;;;2.38;0.90;;;16.90;99.90;;;;;;5042795;28;20043;-43
2023/10/21 13:11:05;;;;;;;4.72;1.20;;;17.00;99.90;;;;;;5043114;28;20032;-42
2023/10/21 13:13:35;;;;;;;3.30;1.42;;;17.00;99.90;;;;;;5043852;28;20149;-44
2023/10/21 13:16:03;;;;;;;5.38;1.15;;;17.10;99.90;;;;;;5042860;28;20028;-45
2023/10/21 13:18:29;;;;;;;3.50;1.02;;;17.00;99.90;;;;;;5043597;28;20037;-45
2023/10/21 13:20:54;;;;;;;4.00;1.20;;;17.00;99.90;;;;;;5043518;28;20028;-43
2023/10/21 13:23:20;;;;;;;4.50;1.20;;;17.00;99.90;;;;;;5045343;28;20104;-45